Latest Weather Observations for Essendon Airport

IDV60801

Issued at 10:03 am EST Friday 28 April 2017 (issued every 30 minutes, with the page automatically refreshed every 10 minutes)

About weather observations | Map of weather stations | Latest weather observations for VIC | Other Formats
Station Details ID: 086038 Name: ESSENDON AIRPORT Lat: -37.73 Lon: 144.91 Height: 78.4 m
Data from the previous 72 hours. | See also: Recent months at Essendon Airport
Date/Time
EST
Temp
°C
App
Temp
°C
Dew
Point
°C
Rel
Hum
%
Delta-T
°C
Wind Press
QNH
hPa
Press
MSL
hPa
Rain since
9am
mm
Dir  Spd
km/h
Gust
km/h
Spd
kts
Gust
kts
28/10:00am 15.5 13.4 11.3 76 2.2 WNW 13 17 7 9 1024.1 1024.1 0.0
28/09:30am 15.0 12.8 10.8 76 2.2 WNW 13 17 7 9 1024.0 1024.0 0.0
28/09:00am 14.5 11.8 10.3 76 2.2 NW 15 20 8 11 1024.0 1024.0 0.0
28/08:30am 14.7 12.5 10.9 78 2.0 NW 13 15 7 8 1023.8 1023.8 0.0
28/08:00am 13.3 11.2 9.9 80 1.7 NW 11 13 6 7 1023.6 1023.6 0.0
28/07:30am 13.2 11.5 10.0 81 1.7 NW 9 11 5 6 1023.3 1023.3 0.0
28/07:00am 13.0 11.0 10.2 83 1.4 NW 11 13 6 7 1023.1 1023.1 0.0
28/06:30am 12.9 10.6 10.4 85 1.3 NW 13 17 7 9 1022.8 1022.8 0.0
28/06:00am 12.6 10.4 10.7 88 1.0 NW 13 17 7 9 1022.7 1022.7 0.0
28/05:30am 12.3 10.0 10.5 89 0.9 NW 13 17 7 9 1022.8 1022.8 0.0
28/05:00am 12.5 10.7 10.7 89 0.9 NW 11 15 6 8 1022.6 1022.6 0.0
28/04:30am 12.4 11.1 11.3 93 0.6 NW 9 15 5 8 1022.4 1022.4 0.0
28/04:00am 12.0 10.7 11.4 96 0.3 NW 9 11 5 6 1022.5 1022.5 0.0
28/03:30am 11.9 10.7 11.6 98 0.2 NW 9 13 5 7 1022.6 1022.6 0.0
28/03:00am 11.1 9.7 10.9 99 0.1 N 9 11 5 6 1022.7 1022.7 0.0
28/02:30am 11.4 9.9 10.5 94 0.5 NNW 9 13 5 7 1022.8 1022.8 0.0
28/02:00am 11.5 10.3 10.4 93 0.6 NW 7 13 4 7 1023.0 1023.0 0.0
28/01:30am 11.6 9.7 10.5 93 0.6 NW 11 17 6 9 1022.9 1022.9 0.0
28/01:00am 11.4 9.9 10.5 94 0.5 NW 9 13 5 7 1023.2 1023.2 0.0
28/12:30am 11.3 9.8 10.7 96 0.3 NW 9 13 5 7 1023.3 1023.3 0.0
28/12:10am 11.3 9.4 10.5 95 0.4 WNW 11 15 6 8 1023.4 1023.4 0.0
28/12:00am 11.3 8.5 10.0 92 0.7 WNW 15 22 8 12 1023.5 1023.5 0.0
 
Date/Time
EST
Temp
°C
App
Temp
°C
Dew
Point
°C
Rel
Hum
%
Delta-T
°C
Wind Press
QNH
hPa
Press
MSL
hPa
Rain since
9am
mm
Dir  Spd
km/h
Gust
km/h
Spd
kts
Gust
kts
27/11:56pm 11.4 9.0 10.0 91 0.7 WNW 13 22 7 12 1023.5 1023.5 0.0
27/11:30pm 11.6 9.9 9.7 88 1.0 WNW 9 13 5 7 1023.5 1023.5 0.0
27/11:00pm 12.0 10.2 9.4 84 1.3 NW 9 15 5 8 1023.5 1023.5 0.0
27/10:30pm 11.5 10.2 9.9 90 0.8 NW 7 9 4 5 1023.6 1023.6 0.0
27/10:00pm 11.2 9.9 9.8 91 0.7 N 7 9 4 5 1023.5 1023.5 0.0
27/09:30pm 11.4 10.0 9.5 88 1.0 NNW 7 11 4 6 1023.4 1023.4 0.0
27/09:00pm 11.1 9.6 9.2 88 0.9 N 7 9 4 5 1023.4 1023.4 0.0
27/08:30pm 11.3 9.7 8.9 85 1.2 NNW 7 9 4 5 1023.3 1023.3 0.0
27/08:00pm 11.2 9.8 8.8 85 1.2 NW 6 7 3 4 1023.4 1023.4 0.0
27/07:30pm 11.4 10.7 8.4 82 1.5 W 2 7 1 4 1023.3 1023.3 0.0
27/07:00pm 11.5 9.4 8.4 81 1.5 WSW 9 13 5 7 1023.3 1023.3 0.0
27/06:30pm 11.7 9.2 8.4 80 1.6 W 11 15 6 8 1023.1 1023.1 0.0
27/06:00pm 11.7 10.1 8.7 82 1.5 WSW 7 13 4 7 1022.8 1022.8 0.0
27/05:30pm 11.6 9.6 8.5 81 1.5 WSW 9 11 5 6 1022.7 1022.7 0.0
27/05:00pm 11.8 9.0 8.6 81 1.6 WSW 13 17 7 9 1022.6 1022.6 0.0
27/04:30pm 12.0 8.5 8.8 81 1.6 WSW 17 20 9 11 1022.7 1022.7 0.0
27/04:00pm 12.7 9.7 9.2 79 1.8 WSW 15 20 8 11 1022.8 1022.8 0.0
27/03:30pm 12.0 7.0 8.1 77 1.9 WSW 24 30 13 16 1023.0 1023.0 0.0
27/03:00pm 12.7 7.9 7.4 70 2.6 SSW 22 30 12 16 1022.9 1022.9 0.0
27/02:30pm 13.0 7.7 7.0 67 2.9 SSW 24 32 13 17 1023.1 1023.1 0.0
27/02:00pm 12.7 9.8 8.2 74 2.2 S 13 17 7 9 1022.8 1022.8 0.0
27/01:30pm 11.7 7.2 8.4 80 1.6 SSW 22 30 12 16 1022.9 1022.9 0.0
27/01:00pm 12.6 8.3 6.9 68 2.7 SW 19 24 10 13 1022.8 1022.8 0.0
27/12:30pm 11.7 6.6 7.8 77 1.9 SW 24 33 13 18 1023.3 1023.3 0.0
27/12:00pm 12.4 6.5 7.7 73 2.3 WSW 28 35 15 19 1023.4 1023.4 0.0
27/11:30am 12.7 7.0 8.2 74 2.2 SW 28 37 15 20 1023.4 1023.4 0.0
27/11:00am 12.1 6.0 6.8 70 2.5 SW 28 41 15 22 1023.3 1023.3 0.0
27/10:30am 12.3 7.0 8.4 77 1.9 SW 26 33 14 18 1023.1 1023.1 0.0
27/10:00am 11.0 7.0 8.4 84 1.3 WSW 19 26 10 14 1023.1 1023.1 0.0
27/09:30am 9.1 7.5 7.9 92 0.6 E 6 9 3 5 1023.2 1023.2 0.0
27/09:00am 8.7 6.7 7.3 91 0.7 WSW 7 11 4 6 1023.0 1023.0 11.0
27/08:30am 8.4 6.4 7.3 93 0.5 SSW 7 11 4 6 1022.9 1022.9 -
27/08:00am 8.1 4.7 7.8 98 0.1 WSW 15 20 8 11 1022.3 1022.2 -
27/07:30am 7.6 6.3 7.5 99 0.0 N 4 7 2 4 1022.3 1022.2 -
27/07:00am 7.3 6.3 7.2 99 0.0 NNW 2 7 1 4 1022.0 1021.9 -
27/06:30am 7.4 5.1 7.3 99 0.0 W 9 13 5 7 1021.7 1021.6 -
27/06:00am 7.5 4.4 7.4 99 0.0 SSW 13 19 7 10 1021.7 1021.6 -
27/05:30am 7.4 3.5 7.3 99 0.0 W 17 20 9 11 1021.0 1020.9 -
27/05:00am 7.5 3.7 7.4 99 0.0 W 17 24 9 13 1020.7 1020.6 -
27/04:30am 7.4 4.7 7.3 99 0.0 WSW 11 15 6 8 1020.5 1020.4 -
27/04:00am 7.2 4.1 7.1 99 0.0 W 13 17 7 9 1020.0 1019.9 -
27/03:30am 7.3 3.0 7.2 99 0.0 W 19 26 10 14 1020.2 1020.1 -
27/03:29am 7.3 2.9 7.2 99 0.0 W 20 30 11 16 1020.2 1020.1 -
27/03:00am 7.5 3.7 7.4 99 0.0 WSW 17 20 9 11 1020.3 1020.2 4.0
27/02:30am 7.6 4.9 7.2 97 0.2 SSE 11 15 6 8 1020.5 1020.4 -
27/02:00am 7.6 4.4 7.0 96 0.3 WSW 13 20 7 11 1020.3 1020.2 -
27/01:30am 7.8 3.3 7.1 95 0.3 WSW 20 26 11 14 1020.0 1019.9 -
27/01:00am 7.7 2.4 6.8 94 0.4 WSW 24 32 13 17 1019.6 1019.5 -
27/12:30am 7.5 1.7 6.4 93 0.5 WSW 26 33 14 18 1019.4 1019.3 -
27/12:00am 7.5 3.6 6.9 96 0.3 WSW 17 22 9 12 1019.6 1019.5 -
 
Date/Time
EST
Temp
°C
App
Temp
°C
Dew
Point
°C
Rel
Hum
%
Delta-T
°C
Wind Press
QNH
hPa
Press
MSL
hPa
Rain since
9am
mm
Dir  Spd
km/h
Gust
km/h
Spd
kts
Gust
kts
26/11:30pm 7.4 3.4 6.8 96 0.3 W 17 24 9 13 1019.5 1019.4 -
26/11:00pm 7.3 2.9 6.6 95 0.3 WSW 19 22 10 12 1019.4 1019.3 -
26/10:30pm 7.9 2.2 6.8 93 0.5 WSW 26 33 14 18 1019.6 1019.5 -
26/10:00pm 7.7 3.2 7.0 95 0.3 WSW 20 26 11 14 1019.5 1019.4 -
26/09:30pm 7.9 2.7 7.1 95 0.4 WSW 24 32 13 17 1019.4 1019.3 -
26/09:00pm 7.8 3.3 7.1 95 0.3 WSW 20 28 11 15 1019.0 1018.9 2.0
26/08:30pm 7.8 3.9 6.9 94 0.4 WSW 17 24 9 13 1018.8 1018.7 -
26/08:00pm 8.0 3.4 6.3 89 0.8 WSW 20 26 11 14 1018.4 1018.3 -
26/07:36pm 8.7 2.4 5.6 81 1.4 SW 28 46 15 25 1018.5 1018.4 -
26/07:30pm 8.7 3.0 5.1 78 1.6 WSW 24 32 13 17 1018.2 1018.1 -
26/07:00pm 9.2 3.9 5.2 76 1.8 WSW 22 30 12 16 1017.7 1017.6 -
26/06:30pm 9.6 4.0 5.2 74 2.0 SW 24 32 13 17 1017.4 1017.3 -
26/06:00pm 9.5 3.8 4.9 73 2.1 WSW 24 37 13 20 1016.7 1016.6 -
26/05:30pm 9.5 3.1 5.1 74 2.0 SW 28 33 15 18 1016.4 1016.3 -
26/05:07pm 9.8 3.7 6.5 80 1.5 SW 28 46 15 25 1016.2 1016.1 -
26/05:00pm 9.7 4.7 6.6 81 1.5 SW 22 32 12 17 1016.0 1015.9 -
26/04:51pm 9.7 3.3 5.3 74 2.0 WSW 28 50 15 27 1016.1 1016.0 -
26/04:30pm 10.2 3.8 5.0 70 2.4 SW 28 37 15 20 1015.8 1015.7 -
26/04:00pm 11.8 4.3 3.6 57 3.7 SSW 32 48 17 26 1015.4 1015.3 -
26/03:30pm 12.1 5.5 4.3 59 3.5 SSW 28 50 15 27 1015.0 1015.0 -
26/03:00pm 11.4 4.3 5.3 66 2.8 SW 32 43 17 23 1014.7 1014.7 0.8
26/02:30pm 11.0 2.4 4.7 65 2.9 SW 39 57 21 31 1014.3 1014.3 -
26/02:29pm 11.2 3.3 4.2 62 3.1 SW 35 57 19 31 1014.3 1014.3 -
26/02:00pm 12.2 4.3 6.3 67 2.8 SSW 37 52 20 28 1013.9 1013.9 0.6
26/01:36pm 13.4 6.3 5.6 59 3.7 SW 32 52 17 28 1013.5 1013.5 0.2
26/01:30pm 12.6 5.3 4.6 58 3.7 SW 32 44 17 24 1013.4 1013.4 0.2
26/01:09pm 10.5 2.2 5.9 73 2.1 SSW 39 54 21 29 1013.4 1013.4 0.2
26/01:04pm 12.1 3.6 5.0 62 3.3 SSW 39 57 21 31 1013.2 1013.2 0.2
26/01:00pm 12.0 2.7 5.0 62 3.2 SSW 43 57 23 31 1013.1 1013.1 0.2
26/12:41pm 13.3 6.1 5.9 61 3.5 SSW 33 52 18 28 1013.0 1013.0 0.2
26/12:30pm 13.0 4.7 6.1 63 3.3 SSW 39 52 21 28 1012.9 1012.9 0.2
26/12:01pm 13.7 5.3 5.6 58 3.8 SSW 39 57 21 31 1012.4 1012.4 0.2
26/12:00pm 13.8 5.2 4.9 55 4.2 SSW 39 56 21 30 1012.4 1012.4 0.2
26/11:58am 13.2 5.0 4.6 56 4.0 SSW 37 56 20 30 1012.4 1012.4 0.2
26/11:30am 13.0 3.8 5.4 60 3.6 SSW 43 59 23 32 1012.2 1012.2 0.2
26/11:00am 13.1 4.5 4.8 57 3.8 SSW 39 61 21 33 1011.6 1011.6 0.2
26/10:41am 12.4 6.4 7.1 70 2.6 SW 28 52 15 28 1011.4 1011.3 0.2
26/10:30am 11.4 6.4 9.5 88 1.0 WSW 26 33 14 18 1011.3 1011.2 0.2
26/10:00am 10.6 4.7 9.2 91 0.7 WSW 30 39 16 21 1011.0 1010.9 0.2
26/09:30am 10.4 4.5 9.2 92 0.6 WSW 30 44 16 24 1010.6 1010.5 0.0
26/09:00am 10.1 3.9 9.2 94 0.4 WSW 32 43 17 23 1010.1 1010.0 11.6
26/08:30am 10.3 4.3 10.1 99 0.1 SW 32 46 17 25 1009.4 1009.3 11.0
26/08:26am 10.0 4.7 9.9 99 0.1 WSW 28 46 15 25 1009.3 1009.2 11.0
26/08:00am 9.9 3.8 9.9 100 0.0 WSW 32 43 17 23 1009.0 1008.9 11.0
26/07:57am 9.8 4.5 9.8 100 0.0 WSW 28 43 15 23 1009.0 1008.9 11.0
26/07:30am 9.7 6.4 9.7 100 0.0 SW 17 20 9 11 1008.4 1008.3 11.0
26/07:00am 9.7 6.1 9.7 100 0.0 WSW 19 24 10 13 1008.2 1008.1 11.0
26/06:30am 9.7 7.2 9.7 100 0.0 W 13 20 7 11 1007.5 1007.4 10.4
26/06:00am 9.8 6.6 9.8 100 0.0 W 17 22 9 12 1007.2 1007.1 10.0
26/05:30am 9.8 6.9 9.8 100 0.0 W 15 20 8 11 1006.6 1006.5 10.0
26/05:00am 9.9 5.0 9.9 100 0.0 WSW 26 33 14 18 1006.2 1006.1 9.2
26/04:30am 10.0 3.8 10.0 100 0.0 WSW 33 44 18 24 1005.6 1005.5 8.0
26/04:00am 10.6 4.5 10.6 100 0.0 WSW 33 43 18 23 1005.1 1005.0 6.2
26/03:44am 10.6 4.1 10.4 99 0.1 W 35 54 19 29 1004.6 1004.5 4.4
26/03:42am 10.7 4.6 10.5 99 0.1 W 33 44 18 24 1004.5 1004.4 4.2
26/03:30am 11.0 4.5 10.2 95 0.4 W 35 50 19 27 1004.3 1004.2 3.4
26/03:20am 12.3 9.1 9.9 85 1.2 NNW 17 52 9 28 1004.1 1004.0 3.0
26/03:00am 13.3 10.6 10.3 82 1.6 N 15 20 8 11 1003.6 1003.5 2.8
26/02:30am 13.4 9.8 10.4 82 1.6 NNW 20 28 11 15 1003.9 1003.8 2.8
26/02:00am 12.9 9.8 10.4 85 1.3 NNW 17 20 9 11 1003.9 1003.8 2.8
26/01:30am 12.1 10.1 10.2 88 1.0 NNW 11 15 6 8 1004.1 1004.0 2.8
26/01:00am 11.8 10.1 10.0 89 0.9 N 9 11 5 6 1004.4 1004.3 2.8
26/12:30am 11.8 9.7 9.9 88 1.0 N 11 15 6 8 1004.8 1004.7 2.8
26/12:00am 12.5 10.1 10.2 86 1.2 N 13 17 7 9 1005.2 1005.1 2.8
 
Date/Time
EST
Temp
°C
App
Temp
°C
Dew
Point
°C
Rel
Hum
%
Delta-T
°C
Wind Press
QNH
hPa
Press
MSL
hPa
Rain since
9am
mm
Dir  Spd
km/h
Gust
km/h
Spd
kts
Gust
kts
25/11:30pm 13.0 11.1 10.4 84 1.4 NNW 11 13 6 7 1005.4 1005.3 2.8
25/11:00pm 13.8 11.5 10.6 81 1.7 NW 13 19 7 10 1005.7 1005.6 2.8
25/10:30pm 13.8 11.4 11.3 85 1.3 NW 15 22 8 12 1005.7 1005.6 2.8
25/10:00pm 13.5 11.3 12.1 91 0.8 NW 15 22 8 12 1006.0 1005.9 2.8
25/09:35pm 12.7 9.7 12.1 96 0.3 WNW 19 26 10 14 1006.4 1006.3 2.8
25/09:30pm 12.8 9.2 12.0 95 0.4 WNW 22 33 12 18 1006.3 1006.2 2.8
25/09:19pm 13.1 7.8 11.3 89 1.0 NW 30 57 16 31 1006.5 1006.4 2.4
25/09:15pm 14.1 10.2 12.0 87 1.1 NNW 24 57 13 31 1006.5 1006.4 2.0
25/09:14pm 15.0 12.0 12.7 86 1.3 NNW 20 48 11 26 1006.5 1006.4 1.4
25/09:00pm 14.8 12.9 13.0 89 1.0 N 15 19 8 10 1005.5 1005.4 1.2
25/08:30pm 14.2 13.3 13.7 97 0.3 N 11 15 6 8 1005.7 1005.6 1.2
25/08:00pm 13.7 12.3 13.5 99 0.1 N 13 15 7 8 1006.0 1005.9 1.2
25/07:30pm 13.4 12.2 12.9 97 0.3 NNE 11 13 6 7 1006.0 1005.9 1.2
25/07:00pm 13.3 12.2 11.9 91 0.8 NE 9 11 5 6 1006.1 1006.0 1.2
25/06:30pm 14.9 15.5 12.0 83 1.6 CALM 0 0 0 0 1006.2 1006.1 1.2
25/06:00pm 15.6 15.5 12.0 79 2.0 W 4 6 2 3 1006.3 1006.2 1.2
25/05:30pm 16.1 15.0 11.9 76 2.3 W 9 13 5 7 1006.4 1006.3 1.2
25/05:00pm 17.1 16.1 12.2 73 2.7 W 9 17 5 9 1006.3 1006.2 1.2
25/04:30pm 17.0 16.4 13.5 80 2.0 WSW 9 13 5 7 1006.7 1006.6 1.2
25/04:00pm 17.0 15.1 13.1 78 2.2 WSW 15 20 8 11 1006.8 1006.7 1.2
25/03:30pm 16.7 15.7 14.5 87 1.3 W 13 17 7 9 1006.9 1006.8 1.2
25/03:00pm 16.8 16.3 15.0 89 1.0 S 11 17 6 9 1006.8 1006.7 1.2
25/02:40pm 16.7 16.3 15.1 90 0.9 S 11 13 6 7 1007.0 1006.9 1.2
25/02:30pm 16.8 16.1 15.5 92 0.8 S 13 19 7 10 1007.0 1006.9 1.2
25/02:23pm 16.9 16.2 15.4 91 0.9 S 13 19 7 10 1006.9 1006.8 1.2
25/02:00pm 16.5 15.0 15.2 92 0.8 S 17 24 9 13 1007.0 1006.9 1.2
25/01:30pm 16.8 15.6 16.0 95 0.5 SSW 17 28 9 15 1007.2 1007.1 1.2
25/01:00pm 16.5 13.3 16.2 98 0.2 SW 28 39 15 21 1007.5 1007.4 1.2
25/12:58pm 16.4 13.1 16.1 98 0.2 SW 28 41 15 22 1007.5 1007.4 1.2
25/12:46pm 16.5 14.4 16.2 98 0.2 WSW 22 37 12 20 1007.5 1007.4 1.2
25/12:42pm 16.9 15.6 16.7 99 0.1 WSW 19 30 10 16 1007.5 1007.4 1.0
25/12:30pm 16.6 15.2 16.6 100 0.0 SW 19 26 10 14 1007.6 1007.5 0.6
25/12:00pm 16.4 14.8 16.1 98 0.2 SW 19 24 10 13 1007.9 1007.8 0.0
25/11:30am 16.6 14.0 16.0 96 0.4 SW 24 30 13 16 1008.2 1008.1 0.0
25/11:02am 17.5 15.5 16.4 93 0.7 WSW 22 28 12 15 1008.2 1008.1 0.0
25/11:00am 18.0 16.2 17.0 94 0.6 WSW 22 28 12 15 1008.2 1008.1 0.0
25/10:57am 17.7 15.8 16.7 94 0.6 WSW 22 30 12 16 1008.2 1008.1 0.0
25/10:30am 17.0 15.7 16.8 99 0.1 WSW 19 24 10 13 1008.3 1008.2 0.0

Other Formats:

Comma delimited format used in spreadsheet applications
http://www.bom.gov.au/fwo/IDV60801/IDV60801.95866.axf

JavaScript Object Notation format (JSON) in row-major order
http://www.bom.gov.au/fwo/IDV60801/IDV60801.95866.json